sensor_id;sensor_type;location;lat;lon;timestamp;P1;durP1;ratioP1;P2;durP2;ratioP2
80199;SDS011;69520;44.900;-0.764;2024-03-02T00:00:38;8.48;;;0.70;;
80199;SDS011;69520;44.900;-0.764;2024-03-02T00:03:05;12.48;;;1.48;;
80199;SDS011;69520;44.900;-0.764;2024-03-02T00:05:34;10.73;;;1.43;;
80199;SDS011;69520;44.900;-0.764;2024-03-02T00:08:01;13.02;;;1.17;;
80199;SDS011;69520;44.900;-0.764;2024-03-02T00:10:34;13.55;;;1.58;;
80199;SDS011;69520;44.900;-0.764;2024-03-02T00:13:02;13.45;;;1.45;;
80199;SDS011;69520;44.900;-0.764;2024-03-02T00:17:57;9.93;;;1.40;;
80199;SDS011;69520;44.900;-0.764;2024-03-02T00:20:24;13.00;;;1.38;;
80199;SDS011;69520;44.900;-0.764;2024-03-02T00:22:59;12.40;;;1.15;;
80199;SDS011;69520;44.900;-0.764;2024-03-02T00:25:38;9.13;;;1.27;;
80199;SDS011;69520;44.900;-0.764;2024-03-02T00:28:05;12.20;;;1.33;;
80199;SDS011;69520;44.900;-0.764;2024-03-02T00:33:18;11.80;;;1.48;;
80199;SDS011;69520;44.900;-0.764;2024-03-02T00:35:44;13.27;;;1.65;;
80199;SDS011;69520;44.900;-0.764;2024-03-02T00:38:10;11.25;;;1.20;;
80199;SDS011;69520;44.900;-0.764;2024-03-02T00:40:37;11.57;;;1.38;;
80199;SDS011;69520;44.900;-0.764;2024-03-02T00:43:03;14.60;;;1.27;;
80199;SDS011;69520;44.900;-0.764;2024-03-02T00:45:29;11.75;;;1.10;;
80199;SDS011;69520;44.900;-0.764;2024-03-02T00:47:55;10.18;;;1.25;;
80199;SDS011;69520;44.900;-0.764;2024-03-02T00:50:22;7.32;;;0.93;;
80199;SDS011;69520;44.900;-0.764;2024-03-02T00:52:48;11.57;;;1.45;;
80199;SDS011;69520;44.900;-0.764;2024-03-02T00:55:14;8.77;;;1.13;;
80199;SDS011;69520;44.900;-0.764;2024-03-02T00:57:40;8.38;;;1.05;;
80199;SDS011;69520;44.900;-0.764;2024-03-02T01:00:06;12.00;;;1.13;;
80199;SDS011;69520;44.900;-0.764;2024-03-02T01:02:35;11.63;;;1.63;;
80199;SDS011;69520;44.900;-0.764;2024-03-02T01:05:01;13.45;;;1.70;;
80199;SDS011;69520;44.900;-0.764;2024-03-02T01:07:27;10.67;;;1.73;;
80199;SDS011;69520;44.900;-0.764;2024-03-02T01:09:53;8.60;;;1.48;;
80199;SDS011;69520;44.900;-0.764;2024-03-02T01:12:19;10.60;;;1.25;;
80199;SDS011;69520;44.900;-0.764;2024-03-02T01:14:45;12.10;;;1.45;;
80199;SDS011;69520;44.900;-0.764;2024-03-02T01:17:11;10.75;;;1.27;;
80199;SDS011;69520;44.900;-0.764;2024-03-02T01:19:37;10.70;;;1.47;;
80199;SDS011;69520;44.900;-0.764;2024-03-02T01:22:04;10.45;;;1.45;;
80199;SDS011;69520;44.900;-0.764;2024-03-02T01:24:30;11.43;;;1.48;;
80199;SDS011;69520;44.900;-0.764;2024-03-02T01:26:56;8.82;;;1.10;;
80199;SDS011;69520;44.900;-0.764;2024-03-02T01:29:22;9.73;;;1.05;;
80199;SDS011;69520;44.900;-0.764;2024-03-02T01:31:48;7.53;;;0.77;;
80199;SDS011;69520;44.900;-0.764;2024-03-02T01:34:16;12.23;;;1.30;;
80199;SDS011;69520;44.900;-0.764;2024-03-02T01:36:42;11.60;;;2.30;;
80199;SDS011;69520;44.900;-0.764;2024-03-02T01:39:08;9.75;;;1.30;;
80199;SDS011;69520;44.900;-0.764;2024-03-02T01:41:34;9.30;;;0.98;;
80199;SDS011;69520;44.900;-0.764;2024-03-02T01:44:01;15.53;;;2.20;;
80199;SDS011;69520;44.900;-0.764;2024-03-02T01:46:27;9.90;;;1.10;;
80199;SDS011;69520;44.900;-0.764;2024-03-02T01:48:53;9.95;;;1.23;;
80199;SDS011;69520;44.900;-0.764;2024-03-02T01:51:19;12.85;;;1.73;;
80199;SDS011;69520;44.900;-0.764;2024-03-02T01:53:45;11.73;;;1.48;;
80199;SDS011;69520;44.900;-0.764;2024-03-02T01:56:11;11.10;;;1.20;;
80199;SDS011;69520;44.900;-0.764;2024-03-02T01:58:37;10.45;;;1.58;;
80199;SDS011;69520;44.900;-0.764;2024-03-02T02:01:03;9.60;;;0.88;;
80199;SDS011;69520;44.900;-0.764;2024-03-02T02:03:29;10.23;;;1.60;;
80199;SDS011;69520;44.900;-0.764;2024-03-02T02:05:55;9.70;;;1.38;;
80199;SDS011;69520;44.900;-0.764;2024-03-02T02:08:21;9.13;;;1.53;;
80199;SDS011;69520;44.900;-0.764;2024-03-02T02:10:47;7.75;;;0.95;;
80199;SDS011;69520;44.900;-0.764;2024-03-02T02:13:14;10.95;;;1.30;;
80199;SDS011;69520;44.900;-0.764;2024-03-02T02:15:40;12.30;;;1.42;;
80199;SDS011;69520;44.900;-0.764;2024-03-02T02:18:06;11.00;;;1.30;;
80199;SDS011;69520;44.900;-0.764;2024-03-02T02:20:32;11.63;;;1.60;;
80199;SDS011;69520;44.900;-0.764;2024-03-02T02:22:58;8.35;;;1.10;;
80199;SDS011;69520;44.900;-0.764;2024-03-02T02:25:25;8.35;;;1.02;;
80199;SDS011;69520;44.900;-0.764;2024-03-02T02:27:51;8.90;;;1.15;;
80199;SDS011;69520;44.900;-0.764;2024-03-02T02:30:51;12.80;;;1.10;;
80199;SDS011;69520;44.900;-0.764;2024-03-02T02:33:10;8.20;;;0.90;;
80199;SDS011;69520;44.900;-0.764;2024-03-02T02:35:36;11.13;;;1.88;;
80199;SDS011;69520;44.900;-0.764;2024-03-02T02:38:02;7.80;;;1.20;;
80199;SDS011;69520;44.900;-0.764;2024-03-02T02:40:28;8.25;;;1.13;;
80199;SDS011;69520;44.900;-0.764;2024-03-02T02:42:55;9.00;;;1.02;;
80199;SDS011;69520;44.900;-0.764;2024-03-02T02:45:21;10.10;;;1.20;;
80199;SDS011;69520;44.900;-0.764;2024-03-02T02:47:48;11.13;;;2.03;;
80199;SDS011;69520;44.900;-0.764;2024-03-02T02:50:14;11.00;;;1.45;;
80199;SDS011;69520;44.900;-0.764;2024-03-02T02:52:41;9.45;;;1.15;;
80199;SDS011;69520;44.900;-0.764;2024-03-02T02:55:10;8.00;;;1.33;;
80199;SDS011;69520;44.900;-0.764;2024-03-02T02:57:37;9.90;;;1.00;;
80199;SDS011;69520;44.900;-0.764;2024-03-02T03:00:11;9.25;;;1.08;;
80199;SDS011;69520;44.900;-0.764;2024-03-02T03:02:41;10.80;;;1.45;;
80199;SDS011;69520;44.900;-0.764;2024-03-02T03:05:07;10.90;;;1.30;;
80199;SDS011;69520;44.900;-0.764;2024-03-02T03:07:33;13.27;;;1.98;;
80199;SDS011;69520;44.900;-0.764;2024-03-02T03:10:00;11.30;;;1.17;;
80199;SDS011;69520;44.900;-0.764;2024-03-02T03:12:26;13.70;;;1.30;;
80199;SDS011;69520;44.900;-0.764;2024-03-02T03:14:52;9.65;;;0.93;;
80199;SDS011;69520;44.900;-0.764;2024-03-02T03:17:18;10.27;;;1.00;;
80199;SDS011;69520;44.900;-0.764;2024-03-02T03:19:44;11.07;;;1.30;;
80199;SDS011;69520;44.900;-0.764;2024-03-02T03:22:10;7.33;;;1.27;;
80199;SDS011;69520;44.900;-0.764;2024-03-02T03:24:36;8.48;;;1.05;;
80199;SDS011;69520;44.900;-0.764;2024-03-02T03:27:02;8.57;;;0.90;;
80199;SDS011;69520;44.900;-0.764;2024-03-02T03:29:28;10.35;;;1.20;;
80199;SDS011;69520;44.900;-0.764;2024-03-02T03:31:54;5.00;;;0.60;;
80199;SDS011;69520;44.900;-0.764;2024-03-02T03:34:20;8.20;;;1.10;;
80199;SDS011;69520;44.900;-0.764;2024-03-02T03:36:46;6.63;;;0.73;;
80199;SDS011;69520;44.900;-0.764;2024-03-02T03:39:12;11.07;;;1.10;;
80199;SDS011;69520;44.900;-0.764;2024-03-02T03:41:38;5.55;;;0.60;;
80199;SDS011;69520;44.900;-0.764;2024-03-02T03:44:05;8.38;;;1.35;;
80199;SDS011;69520;44.900;-0.764;2024-03-02T03:46:31;8.90;;;1.20;;
80199;SDS011;69520;44.900;-0.764;2024-03-02T03:48:57;8.65;;;1.00;;
80199;SDS011;69520;44.900;-0.764;2024-03-02T03:51:23;10.38;;;1.08;;
80199;SDS011;69520;44.900;-0.764;2024-03-02T03:53:50;6.53;;;1.13;;
80199;SDS011;69520;44.900;-0.764;2024-03-02T03:56:15;8.77;;;1.00;;
80199;SDS011;69520;44.900;-0.764;2024-03-02T03:58:42;7.53;;;1.20;;
80199;SDS011;69520;44.900;-0.764;2024-03-02T04:01:08;8.30;;;1.60;;
80199;SDS011;69520;44.900;-0.764;2024-03-02T04:03:34;13.13;;;1.20;;
80199;SDS011;69520;44.900;-0.764;2024-03-02T04:06:00;6.95;;;0.88;;
80199;SDS011;69520;44.900;-0.764;2024-03-02T04:08:26;9.30;;;1.15;;
80199;SDS011;69520;44.900;-0.764;2024-03-02T04:10:52;6.20;;;0.77;;
80199;SDS011;69520;44.900;-0.764;2024-03-02T04:13:18;10.13;;;1.40;;
80199;SDS011;69520;44.900;-0.764;2024-03-02T04:15:44;5.80;;;0.93;;
80199;SDS011;69520;44.900;-0.764;2024-03-02T04:18:10;7.85;;;0.85;;
80199;SDS011;69520;44.900;-0.764;2024-03-02T04:20:37;7.13;;;0.77;;
80199;SDS011;69520;44.900;-0.764;2024-03-02T04:23:03;8.77;;;0.87;;
80199;SDS011;69520;44.900;-0.764;2024-03-02T04:25:29;7.20;;;0.70;;
80199;SDS011;69520;44.900;-0.764;2024-03-02T04:27:55;7.10;;;1.33;;
80199;SDS011;69520;44.900;-0.764;2024-03-02T04:30:21;5.53;;;1.05;;
80199;SDS011;69520;44.900;-0.764;2024-03-02T04:32:47;5.75;;;0.75;;
80199;SDS011;69520;44.900;-0.764;2024-03-02T04:35:14;7.17;;;0.80;;
80199;SDS011;69520;44.900;-0.764;2024-03-02T04:37:40;7.63;;;0.85;;
80199;SDS011;69520;44.900;-0.764;2024-03-02T04:40:06;7.45;;;0.80;;
80199;SDS011;69520;44.900;-0.764;2024-03-02T04:42:35;6.05;;;0.68;;
80199;SDS011;69520;44.900;-0.764;2024-03-02T04:45:01;4.55;;;0.60;;
80199;SDS011;69520;44.900;-0.764;2024-03-02T04:47:28;7.37;;;0.70;;
80199;SDS011;69520;44.900;-0.764;2024-03-02T04:49:54;5.45;;;0.82;;
80199;SDS011;69520;44.900;-0.764;2024-03-02T04:52:20;4.03;;;0.60;;
80199;SDS011;69520;44.900;-0.764;2024-03-02T04:54:46;4.95;;;0.45;;
80199;SDS011;69520;44.900;-0.764;2024-03-02T04:57:30;5.22;;;0.82;;
80199;SDS011;69520;44.900;-0.764;2024-03-02T04:59:56;4.70;;;0.50;;
80199;SDS011;69520;44.900;-0.764;2024-03-02T05:02:22;4.40;;;0.50;;
80199;SDS011;69520;44.900;-0.764;2024-03-02T05:04:48;6.22;;;0.50;;
80199;SDS011;69520;44.900;-0.764;2024-03-02T05:07:14;6.15;;;0.82;;
80199;SDS011;69520;44.900;-0.764;2024-03-02T05:09:41;4.20;;;0.30;;
80199;SDS011;69520;44.900;-0.764;2024-03-02T05:12:07;4.33;;;0.40;;
80199;SDS011;69520;44.900;-0.764;2024-03-02T05:14:36;3.63;;;0.70;;
80199;SDS011;69520;44.900;-0.764;2024-03-02T05:17:03;5.00;;;0.40;;
80199;SDS011;69520;44.900;-0.764;2024-03-02T05:19:29;5.80;;;0.60;;
80199;SDS011;69520;44.900;-0.764;2024-03-02T05:21:55;5.70;;;0.60;;
80199;SDS011;69520;44.900;-0.764;2024-03-02T05:24:21;4.00;;;0.30;;
80199;SDS011;69520;44.900;-0.764;2024-03-02T05:26:47;4.75;;;0.47;;
80199;SDS011;69520;44.900;-0.764;2024-03-02T05:29:14;5.53;;;0.90;;
80199;SDS011;69520;44.900;-0.764;2024-03-02T05:31:40;5.20;;;0.50;;
80199;SDS011;69520;44.900;-0.764;2024-03-02T05:34:06;2.53;;;0.30;;
80199;SDS011;69520;44.900;-0.764;2024-03-02T05:36:32;4.20;;;0.70;;
80199;SDS011;69520;44.900;-0.764;2024-03-02T05:38:58;4.75;;;0.50;;
80199;SDS011;69520;44.900;-0.764;2024-03-02T05:41:24;2.58;;;0.30;;
80199;SDS011;69520;44.900;-0.764;2024-03-02T05:43:50;3.47;;;0.38;;
80199;SDS011;69520;44.900;-0.764;2024-03-02T05:46:16;3.80;;;0.40;;
80199;SDS011;69520;44.900;-0.764;2024-03-02T05:48:42;1.70;;;0.30;;
80199;SDS011;69520;44.900;-0.764;2024-03-02T05:51:08;2.22;;;0.20;;
80199;SDS011;69520;44.900;-0.764;2024-03-02T05:53:34;2.35;;;0.20;;
80199;SDS011;69520;44.900;-0.764;2024-03-02T05:56:03;2.75;;;0.20;;
80199;SDS011;69520;44.900;-0.764;2024-03-02T05:58:29;2.95;;;0.20;;
80199;SDS011;69520;44.900;-0.764;2024-03-02T06:01:14;4.57;;;0.23;;
80199;SDS011;69520;44.900;-0.764;2024-03-02T06:03:40;4.15;;;0.30;;
80199;SDS011;69520;44.900;-0.764;2024-03-02T06:06:06;3.35;;;0.20;;
80199;SDS011;69520;44.900;-0.764;2024-03-02T06:08:32;1.70;;;0.10;;
80199;SDS011;69520;44.900;-0.764;2024-03-02T06:10:58;3.78;;;0.20;;
80199;SDS011;69520;44.900;-0.764;2024-03-02T06:13:24;2.73;;;0.30;;
80199;SDS011;69520;44.900;-0.764;2024-03-02T06:15:51;3.83;;;0.20;;
80199;SDS011;69520;44.900;-0.764;2024-03-02T06:18:17;6.40;;;0.50;;
80199;SDS011;69520;44.900;-0.764;2024-03-02T06:20:43;4.18;;;0.40;;
80199;SDS011;69520;44.900;-0.764;2024-03-02T06:23:09;3.67;;;0.30;;
80199;SDS011;69520;44.900;-0.764;2024-03-02T06:25:35;4.90;;;0.30;;
80199;SDS011;69520;44.900;-0.764;2024-03-02T06:28:01;3.92;;;0.30;;
80199;SDS011;69520;44.900;-0.764;2024-03-02T06:30:29;3.00;;;0.45;;
80199;SDS011;69520;44.900;-0.764;2024-03-02T06:32:55;3.53;;;0.22;;
80199;SDS011;69520;44.900;-0.764;2024-03-02T06:35:21;6.38;;;0.40;;
80199;SDS011;69520;44.900;-0.764;2024-03-02T06:37:47;6.30;;;0.53;;
80199;SDS011;69520;44.900;-0.764;2024-03-02T06:40:13;5.65;;;0.80;;
80199;SDS011;69520;44.900;-0.764;2024-03-02T06:42:39;3.97;;;0.55;;
80199;SDS011;69520;44.900;-0.764;2024-03-02T06:45:05;4.03;;;0.40;;
80199;SDS011;69520;44.900;-0.764;2024-03-02T06:47:31;4.75;;;0.40;;
80199;SDS011;69520;44.900;-0.764;2024-03-02T06:49:57;2.93;;;0.40;;
80199;SDS011;69520;44.900;-0.764;2024-03-02T06:52:24;3.15;;;0.32;;
80199;SDS011;69520;44.900;-0.764;2024-03-02T06:54:50;4.85;;;0.60;;
80199;SDS011;69520;44.900;-0.764;2024-03-02T06:57:16;3.97;;;0.52;;
80199;SDS011;69520;44.900;-0.764;2024-03-02T06:59:42;2.25;;;0.40;;
80199;SDS011;69520;44.900;-0.764;2024-03-02T07:02:08;2.67;;;0.40;;
80199;SDS011;69520;44.900;-0.764;2024-03-02T07:04:34;4.15;;;0.70;;
80199;SDS011;69520;44.900;-0.764;2024-03-02T07:07:00;3.67;;;0.40;;
80199;SDS011;69520;44.900;-0.764;2024-03-02T07:09:26;2.50;;;0.30;;
80199;SDS011;69520;44.900;-0.764;2024-03-02T07:11:52;6.25;;;0.40;;
80199;SDS011;69520;44.900;-0.764;2024-03-02T07:14:18;3.17;;;0.50;;
80199;SDS011;69520;44.900;-0.764;2024-03-02T07:16:44;4.32;;;0.50;;
80199;SDS011;69520;44.900;-0.764;2024-03-02T07:19:10;3.65;;;0.60;;
80199;SDS011;69520;44.900;-0.764;2024-03-02T07:21:36;3.22;;;0.40;;
80199;SDS011;69520;44.900;-0.764;2024-03-02T07:24:02;3.35;;;0.47;;
80199;SDS011;69520;44.900;-0.764;2024-03-02T07:26:28;4.23;;;0.70;;
80199;SDS011;69520;44.900;-0.764;2024-03-02T07:28:56;4.35;;;0.75;;
80199;SDS011;69520;44.900;-0.764;2024-03-02T07:31:22;3.67;;;0.30;;
80199;SDS011;69520;44.900;-0.764;2024-03-02T07:33:48;4.38;;;0.50;;
80199;SDS011;69520;44.900;-0.764;2024-03-02T07:36:14;5.50;;;0.90;;
80199;SDS011;69520;44.900;-0.764;2024-03-02T07:38:41;4.70;;;0.80;;
80199;SDS011;69520;44.900;-0.764;2024-03-02T07:41:09;5.78;;;1.27;;
80199;SDS011;69520;44.900;-0.764;2024-03-02T07:43:36;6.80;;;1.17;;
80199;SDS011;69520;44.900;-0.764;2024-03-02T07:46:02;4.32;;;0.60;;
80199;SDS011;69520;44.900;-0.764;2024-03-02T07:48:28;3.15;;;0.40;;
80199;SDS011;69520;44.900;-0.764;2024-03-02T07:50:55;4.70;;;0.83;;
80199;SDS011;69520;44.900;-0.764;2024-03-02T07:53:21;4.15;;;0.60;;
80199;SDS011;69520;44.900;-0.764;2024-03-02T07:55:47;2.85;;;0.50;;
80199;SDS011;69520;44.900;-0.764;2024-03-02T07:58:13;4.13;;;0.50;;
80199;SDS011;69520;44.900;-0.764;2024-03-02T08:00:40;7.38;;;0.98;;
80199;SDS011;69520;44.900;-0.764;2024-03-02T08:03:06;5.07;;;1.17;;
80199;SDS011;69520;44.900;-0.764;2024-03-02T08:05:36;3.08;;;0.40;;
80199;SDS011;69520;44.900;-0.764;2024-03-02T08:08:02;2.50;;;0.40;;
80199;SDS011;69520;44.900;-0.764;2024-03-02T08:10:28;3.50;;;0.50;;
80199;SDS011;69520;44.900;-0.764;2024-03-02T08:12:54;4.90;;;0.60;;
80199;SDS011;69520;44.900;-0.764;2024-03-02T08:15:20;3.50;;;0.57;;
80199;SDS011;69520;44.900;-0.764;2024-03-02T08:17:46;4.13;;;0.70;;
80199;SDS011;69520;44.900;-0.764;2024-03-02T08:20:14;4.72;;;0.50;;
80199;SDS011;69520;44.900;-0.764;2024-03-02T08:22:40;3.72;;;0.80;;
80199;SDS011;69520;44.900;-0.764;2024-03-02T08:25:06;4.55;;;0.80;;
80199;SDS011;69520;44.900;-0.764;2024-03-02T08:27:33;5.33;;;0.97;;
80199;SDS011;69520;44.900;-0.764;2024-03-02T08:29:59;4.70;;;0.90;;
80199;SDS011;69520;44.900;-0.764;2024-03-02T08:32:25;4.63;;;0.82;;
80199;SDS011;69520;44.900;-0.764;2024-03-02T08:34:51;3.85;;;0.60;;
80199;SDS011;69520;44.900;-0.764;2024-03-02T08:37:17;2.60;;;0.40;;
80199;SDS011;69520;44.900;-0.764;2024-03-02T08:39:44;4.90;;;0.90;;
80199;SDS011;69520;44.900;-0.764;2024-03-02T08:42:10;3.85;;;0.70;;
80199;SDS011;69520;44.900;-0.764;2024-03-02T08:44:36;4.53;;;0.88;;
80199;SDS011;69520;44.900;-0.764;2024-03-02T08:47:03;3.85;;;0.73;;
80199;SDS011;69520;44.900;-0.764;2024-03-02T08:49:29;4.57;;;1.00;;
80199;SDS011;69520;44.900;-0.764;2024-03-02T08:51:55;5.87;;;1.30;;
80199;SDS011;69520;44.900;-0.764;2024-03-02T08:54:21;6.25;;;1.42;;
80199;SDS011;69520;44.900;-0.764;2024-03-02T08:56:48;6.18;;;1.73;;
80199;SDS011;69520;44.900;-0.764;2024-03-02T08:59:14;4.03;;;0.80;;
80199;SDS011;69520;44.900;-0.764;2024-03-02T09:01:40;6.75;;;0.95;;
80199;SDS011;69520;44.900;-0.764;2024-03-02T09:04:07;4.20;;;0.57;;
80199;SDS011;69520;44.900;-0.764;2024-03-02T09:06:36;4.97;;;0.90;;
80199;SDS011;69520;44.900;-0.764;2024-03-02T09:09:02;4.25;;;0.88;;
80199;SDS011;69520;44.900;-0.764;2024-03-02T09:11:29;4.43;;;0.80;;
80199;SDS011;69520;44.900;-0.764;2024-03-02T09:13:57;4.88;;;1.20;;
80199;SDS011;69520;44.900;-0.764;2024-03-02T09:16:23;6.77;;;1.10;;
80199;SDS011;69520;44.900;-0.764;2024-03-02T09:18:52;4.03;;;0.75;;
80199;SDS011;69520;44.900;-0.764;2024-03-02T09:21:18;4.78;;;0.70;;
80199;SDS011;69520;44.900;-0.764;2024-03-02T09:23:44;4.80;;;0.85;;
80199;SDS011;69520;44.900;-0.764;2024-03-02T09:26:10;3.75;;;0.90;;
80199;SDS011;69520;44.900;-0.764;2024-03-02T09:28:36;6.57;;;1.23;;
80199;SDS011;69520;44.900;-0.764;2024-03-02T09:31:02;3.63;;;0.80;;
80199;SDS011;69520;44.900;-0.764;2024-03-02T09:33:29;5.60;;;0.85;;
80199;SDS011;69520;44.900;-0.764;2024-03-02T09:35:55;4.57;;;0.80;;
80199;SDS011;69520;44.900;-0.764;2024-03-02T09:38:24;3.88;;;0.82;;
80199;SDS011;69520;44.900;-0.764;2024-03-02T09:40:50;5.57;;;1.00;;
80199;SDS011;69520;44.900;-0.764;2024-03-02T09:43:16;4.72;;;0.82;;
80199;SDS011;69520;44.900;-0.764;2024-03-02T09:45:42;4.03;;;0.88;;
80199;SDS011;69520;44.900;-0.764;2024-03-02T09:48:08;5.75;;;1.15;;
80199;SDS011;69520;44.900;-0.764;2024-03-02T09:50:35;4.68;;;0.73;;
80199;SDS011;69520;44.900;-0.764;2024-03-02T09:53:01;4.40;;;0.80;;
80199;SDS011;69520;44.900;-0.764;2024-03-02T09:55:27;3.83;;;0.70;;
80199;SDS011;69520;44.900;-0.764;2024-03-02T09:57:53;4.63;;;0.98;;
80199;SDS011;69520;44.900;-0.764;2024-03-02T10:00:19;3.78;;;0.52;;
80199;SDS011;69520;44.900;-0.764;2024-03-02T10:02:48;4.35;;;0.88;;
80199;SDS011;69520;44.900;-0.764;2024-03-02T10:05:23;4.70;;;0.70;;
80199;SDS011;69520;44.900;-0.764;2024-03-02T10:07:58;3.78;;;0.73;;
80199;SDS011;69520;44.900;-0.764;2024-03-02T10:10:26;4.97;;;1.00;;
80199;SDS011;69520;44.900;-0.764;2024-03-02T10:13:06;3.33;;;0.60;;
80199;SDS011;69520;44.900;-0.764;2024-03-02T10:15:33;3.03;;;0.60;;
80199;SDS011;69520;44.900;-0.764;2024-03-02T10:17:59;9.10;;;2.43;;
80199;SDS011;69520;44.900;-0.764;2024-03-02T10:20:25;6.88;;;1.10;;
80199;SDS011;69520;44.900;-0.764;2024-03-02T10:22:55;2.67;;;0.40;;
80199;SDS011;69520;44.900;-0.764;2024-03-02T10:25:37;6.05;;;0.90;;
80199;SDS011;69520;44.900;-0.764;2024-03-02T10:28:03;5.60;;;1.10;;
80199;SDS011;69520;44.900;-0.764;2024-03-02T10:30:31;3.90;;;0.80;;
80199;SDS011;69520;44.900;-0.764;2024-03-02T10:33:00;4.32;;;0.80;;
80199;SDS011;69520;44.900;-0.764;2024-03-02T10:35:27;6.00;;;0.80;;
80199;SDS011;69520;44.900;-0.764;2024-03-02T10:37:53;5.05;;;0.80;;
80199;SDS011;69520;44.900;-0.764;2024-03-02T10:40:22;6.38;;;0.98;;
80199;SDS011;69520;44.900;-0.764;2024-03-02T10:42:49;5.20;;;1.00;;
80199;SDS011;69520;44.900;-0.764;2024-03-02T10:45:16;5.22;;;0.90;;
80199;SDS011;69520;44.900;-0.764;2024-03-02T10:47:46;4.65;;;1.00;;
80199;SDS011;69520;44.900;-0.764;2024-03-02T10:50:12;4.25;;;0.50;;
80199;SDS011;69520;44.900;-0.764;2024-03-02T10:52:39;5.40;;;0.73;;
80199;SDS011;69520;44.900;-0.764;2024-03-02T10:55:08;4.73;;;0.80;;
80199;SDS011;69520;44.900;-0.764;2024-03-02T10:57:42;5.28;;;0.90;;
80199;SDS011;69520;44.900;-0.764;2024-03-02T11:00:11;4.93;;;0.80;;
80199;SDS011;69520;44.900;-0.764;2024-03-02T11:02:45;4.60;;;1.10;;
80199;SDS011;69520;44.900;-0.764;2024-03-02T11:05:13;4.22;;;0.80;;
80199;SDS011;69520;44.900;-0.764;2024-03-02T11:07:41;4.63;;;0.50;;
80199;SDS011;69520;44.900;-0.764;2024-03-02T11:10:08;4.50;;;0.82;;
80199;SDS011;69520;44.900;-0.764;2024-03-02T11:12:47;8.38;;;2.42;;
80199;SDS011;69520;44.900;-0.764;2024-03-02T11:15:17;4.97;;;0.98;;
80199;SDS011;69520;44.900;-0.764;2024-03-02T11:17:44;5.45;;;1.17;;
80199;SDS011;69520;44.900;-0.764;2024-03-02T11:20:11;7.43;;;0.80;;
80199;SDS011;69520;44.900;-0.764;2024-03-02T11:22:37;4.43;;;0.70;;
80199;SDS011;69520;44.900;-0.764;2024-03-02T11:25:06;4.57;;;1.02;;
80199;SDS011;69520;44.900;-0.764;2024-03-02T11:33:08;4.33;;;0.80;;
80199;SDS011;69520;44.900;-0.764;2024-03-02T11:38:01;2.45;;;0.47;;
80199;SDS011;69520;44.900;-0.764;2024-03-02T11:40:31;4.75;;;0.75;;
80199;SDS011;69520;44.900;-0.764;2024-03-02T11:42:59;5.53;;;0.90;;
80199;SDS011;69520;44.900;-0.764;2024-03-02T11:45:27;3.20;;;0.50;;
80199;SDS011;69520;44.900;-0.764;2024-03-02T11:47:54;3.60;;;0.70;;
80199;SDS011;69520;44.900;-0.764;2024-03-02T11:53:09;7.00;;;1.00;;
80199;SDS011;69520;44.900;-0.764;2024-03-02T11:55:49;4.57;;;0.85;;
80199;SDS011;69520;44.900;-0.764;2024-03-02T11:58:16;4.87;;;0.70;;
80199;SDS011;69520;44.900;-0.764;2024-03-02T12:00:54;3.75;;;0.40;;
80199;SDS011;69520;44.900;-0.764;2024-03-02T12:03:24;1.45;;;0.10;;
80199;SDS011;69520;44.900;-0.764;2024-03-02T12:05:51;0.75;;;0.10;;
80199;SDS011;69520;44.900;-0.764;2024-03-02T12:08:21;1.65;;;0.20;;
80199;SDS011;69520;44.900;-0.764;2024-03-02T12:11:00;2.97;;;0.20;;
80199;SDS011;69520;44.900;-0.764;2024-03-02T12:13:26;2.45;;;0.20;;
80199;SDS011;69520;44.900;-0.764;2024-03-02T12:15:55;3.40;;;0.20;;
80199;SDS011;69520;44.900;-0.764;2024-03-02T12:18:21;1.65;;;0.20;;
80199;SDS011;69520;44.900;-0.764;2024-03-02T12:20:48;3.35;;;0.30;;
80199;SDS011;69520;44.900;-0.764;2024-03-02T12:23:17;1.63;;;0.20;;
80199;SDS011;69520;44.900;-0.764;2024-03-02T12:25:43;3.20;;;0.20;;
80199;SDS011;69520;44.900;-0.764;2024-03-02T12:28:10;4.32;;;0.40;;
80199;SDS011;69520;44.900;-0.764;2024-03-02T12:30:36;8.18;;;1.45;;
80199;SDS011;69520;44.900;-0.764;2024-03-02T12:33:02;4.55;;;0.55;;
80199;SDS011;69520;44.900;-0.764;2024-03-02T12:35:29;3.40;;;0.40;;
80199;SDS011;69520;44.900;-0.764;2024-03-02T12:37:55;4.95;;;0.77;;
80199;SDS011;69520;44.900;-0.764;2024-03-02T12:40:21;5.65;;;0.70;;
80199;SDS011;69520;44.900;-0.764;2024-03-02T12:42:48;4.07;;;0.50;;
80199;SDS011;69520;44.900;-0.764;2024-03-02T12:45:14;3.58;;;0.50;;
80199;SDS011;69520;44.900;-0.764;2024-03-02T12:47:41;5.33;;;0.40;;
80199;SDS011;69520;44.900;-0.764;2024-03-02T12:50:08;2.47;;;0.30;;
80199;SDS011;69520;44.900;-0.764;2024-03-02T12:52:34;4.82;;;0.43;;
80199;SDS011;69520;44.900;-0.764;2024-03-02T12:55:01;4.00;;;0.30;;
80199;SDS011;69520;44.900;-0.764;2024-03-02T12:57:29;4.05;;;0.50;;
80199;SDS011;69520;44.900;-0.764;2024-03-02T12:59:58;6.23;;;1.00;;
80199;SDS011;69520;44.900;-0.764;2024-03-02T13:02:27;5.55;;;0.65;;
80199;SDS011;69520;44.900;-0.764;2024-03-02T13:04:54;6.28;;;0.90;;
80199;SDS011;69520;44.900;-0.764;2024-03-02T13:07:20;4.53;;;0.82;;
80199;SDS011;69520;44.900;-0.764;2024-03-02T13:09:48;4.47;;;0.88;;
80199;SDS011;69520;44.900;-0.764;2024-03-02T13:12:15;6.30;;;0.70;;
80199;SDS011;69520;44.900;-0.764;2024-03-02T13:14:41;5.78;;;0.80;;
80199;SDS011;69520;44.900;-0.764;2024-03-02T13:17:10;4.78;;;0.60;;
80199;SDS011;69520;44.900;-0.764;2024-03-02T13:19:43;4.20;;;0.40;;
80199;SDS011;69520;44.900;-0.764;2024-03-02T13:22:09;5.38;;;0.40;;
80199;SDS011;69520;44.900;-0.764;2024-03-02T13:24:35;3.53;;;0.40;;
80199;SDS011;69520;44.900;-0.764;2024-03-02T13:27:02;4.93;;;0.60;;
80199;SDS011;69520;44.900;-0.764;2024-03-02T13:29:29;4.05;;;0.50;;
80199;SDS011;69520;44.900;-0.764;2024-03-02T13:31:55;2.13;;;0.20;;
80199;SDS011;69520;44.900;-0.764;2024-03-02T13:34:22;3.92;;;0.60;;
80199;SDS011;69520;44.900;-0.764;2024-03-02T13:36:48;3.20;;;0.57;;
80199;SDS011;69520;44.900;-0.764;2024-03-02T13:39:15;2.47;;;0.30;;
80199;SDS011;69520;44.900;-0.764;2024-03-02T13:41:41;4.60;;;0.60;;
80199;SDS011;69520;44.900;-0.764;2024-03-02T13:44:09;7.80;;;0.60;;
80199;SDS011;69520;44.900;-0.764;2024-03-02T13:46:36;6.95;;;0.90;;
80199;SDS011;69520;44.900;-0.764;2024-03-02T13:49:02;4.40;;;0.30;;
80199;SDS011;69520;44.900;-0.764;2024-03-02T13:51:29;4.43;;;0.32;;
80199;SDS011;69520;44.900;-0.764;2024-03-02T13:53:55;4.15;;;0.45;;
80199;SDS011;69520;44.900;-0.764;2024-03-02T13:56:21;4.72;;;0.35;;
80199;SDS011;69520;44.900;-0.764;2024-03-02T13:58:47;6.72;;;1.20;;
80199;SDS011;69520;44.900;-0.764;2024-03-02T14:01:13;4.17;;;0.40;;
80199;SDS011;69520;44.900;-0.764;2024-03-02T14:03:39;6.00;;;0.70;;
80199;SDS011;69520;44.900;-0.764;2024-03-02T14:06:05;4.53;;;0.60;;
80199;SDS011;69520;44.900;-0.764;2024-03-02T14:08:32;3.97;;;0.60;;
80199;SDS011;69520;44.900;-0.764;2024-03-02T14:11:00;3.05;;;0.60;;
80199;SDS011;69520;44.900;-0.764;2024-03-02T14:13:27;4.63;;;0.93;;
80199;SDS011;69520;44.900;-0.764;2024-03-02T14:15:54;4.40;;;0.60;;
80199;SDS011;69520;44.900;-0.764;2024-03-02T14:18:20;5.32;;;0.60;;
80199;SDS011;69520;44.900;-0.764;2024-03-02T14:20:49;6.50;;;0.80;;
80199;SDS011;69520;44.900;-0.764;2024-03-02T14:23:17;3.72;;;0.47;;
80199;SDS011;69520;44.900;-0.764;2024-03-02T14:25:45;4.03;;;0.50;;
80199;SDS011;69520;44.900;-0.764;2024-03-02T14:28:11;3.78;;;0.50;;
80199;SDS011;69520;44.900;-0.764;2024-03-02T14:30:37;3.63;;;0.50;;
80199;SDS011;69520;44.900;-0.764;2024-03-02T14:33:04;4.38;;;0.70;;
80199;SDS011;69520;44.900;-0.764;2024-03-02T14:35:30;5.35;;;0.82;;
80199;SDS011;69520;44.900;-0.764;2024-03-02T14:37:57;5.17;;;1.10;;
80199;SDS011;69520;44.900;-0.764;2024-03-02T14:40:23;4.15;;;0.70;;
80199;SDS011;69520;44.900;-0.764;2024-03-02T14:42:52;4.60;;;0.80;;
80199;SDS011;69520;44.900;-0.764;2024-03-02T14:45:18;5.35;;;0.80;;
80199;SDS011;69520;44.900;-0.764;2024-03-02T14:47:44;5.63;;;0.73;;